Time;durP1;ratioP1;P1;durP2;ratioP2;P2;SDS_P1;SDS_P2;PMS_P1;PMS_P2;Temp;Humidity;BMP_temperature;BMP_pressure;BME280_temperature;BME280_humidity;BME280_pressure;Samples;Min_cycle;Max_cycle;Signal;HPM_P1;HPM_P2
2021/05/16 00:01:19;;;;;;;1.58;0.60;;;;;;;;;;5092831;28;20024;-18
2021/05/16 00:03:45;;;;;;;0.60;0.60;;;;;;;;;;5093389;28;20110;-19
2021/05/16 00:06:10;;;;;;;0.63;0.60;;;;;;;;;;5093269;28;20352;-18
2021/05/16 00:08:35;;;;;;;0.73;0.52;;;;;;;;;;5092964;28;20420;-18
2021/05/16 00:11:01;;;;;;;5.97;0.70;;;;;;;;;;5093101;28;20031;-18
2021/05/16 00:13:27;;;;;;;2.05;0.73;;;;;;;;;;5093307;28;20039;-18
2021/05/16 00:15:53;;;;;;;0.95;0.82;;;;;;;;;;5093038;28;20055;-19
2021/05/16 00:18:18;;;;;;;2.35;0.70;;;;;;;;;;5093329;28;20047;-19
2021/05/16 00:20:43;;;;;;;0.70;0.60;;;;;;;;;;5092897;28;20459;-19
2021/05/16 00:23:09;;;;;;;1.13;0.60;;;;;;;;;;5092849;28;20031;-19
2021/05/16 00:25:35;;;;;;;1.23;0.95;;;;;;;;;;5092080;28;20077;-19
2021/05/16 00:28:01;;;;;;;0.90;0.90;;;;;;;;;;5092767;28;20513;-18
2021/05/16 00:30:26;;;;;;;1.63;0.95;;;;;;;;;;5108730;28;20103;-19
2021/05/16 00:32:53;;;;;;;2.13;1.10;;;;;;;;;;5092972;28;20181;-18
2021/05/16 00:35:20;;;;;;;2.55;1.10;;;;;;;;;;5091421;28;20015;-18
2021/05/16 00:37:46;;;;;;;1.05;0.77;;;;;;;;;;5092486;28;20020;-19
2021/05/16 00:40:12;;;;;;;1.45;0.80;;;;;;;;;;5091405;28;20020;-19
2021/05/16 00:42:37;;;;;;;2.45;1.00;;;;;;;;;;5092508;28;20494;-18
2021/05/16 00:45:10;;;;;;;0.77;0.77;;;;;;;;;;5092611;28;20016;-18
2021/05/16 00:47:37;;;;;;;3.60;1.10;;;;;;;;;;5092390;28;20119;-18
2021/05/16 00:50:04;;;;;;;3.70;1.02;;;;;;;;;;5092755;28;20073;-18
2021/05/16 00:52:30;;;;;;;4.55;0.80;;;;;;;;;;5092681;28;20024;-17
2021/05/16 00:54:56;;;;;;;1.75;0.80;;;;;;;;;;5092534;28;20099;-18
2021/05/16 00:57:22;;;;;;;2.05;1.08;;;;;;;;;;5092697;28;20024;-17
2021/05/16 00:59:48;;;;;;;1.30;0.95;;;;;;;;;;5091141;28;20475;-18
2021/05/16 01:02:13;;;;;;;0.60;0.50;;;;;;;;;;5092339;28;20062;-18
2021/05/16 01:04:40;;;;;;;1.92;1.17;;;;;;;;;;5091030;28;20042;-18
2021/05/16 01:07:05;;;;;;;1.27;0.70;;;;;;;;;;5092741;28;20482;-18
2021/05/16 01:09:31;;;;;;;1.70;0.93;;;;;;;;;;5092161;28;20089;-18
2021/05/16 01:11:58;;;;;;;0.85;0.85;;;;;;;;;;5092255;28;20108;-18
2021/05/16 01:14:31;;;;;;;3.63;1.08;;;;;;;;;;5090973;28;20020;-18
2021/05/16 01:16:57;;;;;;;1.15;0.73;;;;;;;;;;5091084;28;20360;-18
2021/05/16 01:19:23;;;;;;;1.17;0.90;;;;;;;;;;5090885;28;20017;-18
2021/05/16 01:21:50;;;;;;;2.60;0.88;;;;;;;;;;5090908;28;20513;-18
2021/05/16 01:24:17;;;;;;;1.80;0.63;;;;;;;;;;5092246;28;20024;-18
2021/05/16 01:26:48;;;;;;;0.90;0.80;;;;;;;;;;5107758;28;20519;-18
2021/05/16 01:29:14;;;;;;;1.00;0.90;;;;;;;;;;5092107;28;20040;-18
2021/05/16 01:31:39;;;;;;;2.58;0.93;;;;;;;;;;5090773;28;20103;-18
2021/05/16 01:34:05;;;;;;;1.08;0.95;;;;;;;;;;5092289;28;20089;-18
2021/05/16 01:36:31;;;;;;;1.48;0.90;;;;;;;;;;5092356;28;20111;-18
2021/05/16 01:38:57;;;;;;;1.05;0.95;;;;;;;;;;5094713;28;20111;-18
2021/05/16 01:41:22;;;;;;;1.02;0.93;;;;;;;;;;5095951;28;20574;-18
2021/05/16 01:43:53;;;;;;;3.45;1.00;;;;;;;;;;5094629;28;20036;-18
2021/05/16 01:46:19;;;;;;;1.10;0.90;;;;;;;;;;5095878;28;20039;-18
2021/05/16 01:48:44;;;;;;;0.63;0.63;;;;;;;;;;5094365;28;20024;-18
2021/05/16 01:51:10;;;;;;;2.65;0.85;;;;;;;;;;5095789;28;20024;-18
2021/05/16 01:53:36;;;;;;;4.00;0.80;;;;;;;;;;5095938;28;20020;-18
2021/05/16 01:56:02;;;;;;;1.40;1.20;;;;;;;;;;5095740;28;20051;-18
2021/05/16 01:58:27;;;;;;;0.93;0.63;;;;;;;;;;5095538;28;20473;-18
2021/05/16 02:00:53;;;;;;;1.33;0.90;;;;;;;;;;5094212;28;20032;-18
2021/05/16 02:03:33;;;;;;;1.15;1.05;;;;;;;;;;5095440;28;20044;-18
2021/05/16 02:06:00;;;;;;;1.50;1.10;;;;;;;;;;5094256;28;20070;-23
2021/05/16 02:08:25;;;;;;;1.25;1.08;;;;;;;;;;5095247;28;20036;-18
2021/05/16 02:10:51;;;;;;;4.20;0.80;;;;;;;;;;5094108;28;20028;-18
2021/05/16 02:13:17;;;;;;;0.95;0.88;;;;;;;;;;5095360;28;20382;-18
2021/05/16 02:15:52;;;;;;;1.38;1.10;;;;;;;;;;5095260;28;20496;-18
2021/05/16 02:18:25;;;;;;;1.00;0.90;;;;;;;;;;5093988;28;20114;-18
2021/05/16 02:20:50;;;;;;;3.88;1.25;;;;;;;;;;5093898;28;20525;-18
2021/05/16 02:23:15;;;;;;;6.85;0.98;;;;;;;;;;5095378;28;20026;-18
2021/05/16 02:25:42;;;;;;;1.25;0.95;;;;;;;;;;5093493;28;20046;-18
2021/05/16 02:28:16;;;;;;;0.93;0.75;;;;;;;;;;5093813;28;20401;-19
2021/05/16 02:30:42;;;;;;;2.90;0.90;;;;;;;;;;5093519;28;20031;-18
2021/05/16 02:33:08;;;;;;;3.42;1.10;;;;;;;;;;5110913;28;20085;-18
2021/05/16 02:35:33;;;;;;;2.17;1.23;;;;;;;;;;5093550;28;20470;-18
2021/05/16 02:38:04;;;;;;;1.77;0.80;;;;;;;;;;5093485;28;20020;-18
2021/05/16 02:40:32;;;;;;;1.33;1.00;;;;;;;;;;5093488;28;20028;-19
2021/05/16 02:42:58;;;;;;;1.15;1.00;;;;;;;;;;5095002;28;20424;-18
2021/05/16 02:45:24;;;;;;;2.17;1.27;;;;;;;;;;5093335;28;20431;-18
2021/05/16 02:47:55;;;;;;;1.05;1.00;;;;;;;;;;5094549;28;20467;-17
2021/05/16 02:50:23;;;;;;;0.77;0.77;;;;;;;;;;5093927;28;20623;-19
2021/05/16 02:52:56;;;;;;;3.25;0.95;;;;;;;;;;5094807;28;20024;-18
2021/05/16 02:55:24;;;;;;;2.88;1.13;;;;;;;;;;5093181;28;20066;-18
2021/05/16 02:57:50;;;;;;;1.20;1.10;;;;;;;;;;5093244;28;20505;-18
2021/05/16 03:00:17;;;;;;;1.50;1.00;;;;;;;;;;5094404;28;20467;-18
2021/05/16 03:02:42;;;;;;;3.35;0.85;;;;;;;;;;5094366;28;20027;-18
2021/05/16 03:05:08;;;;;;;4.35;1.33;;;;;;;;;;5093042;28;20032;-18
2021/05/16 03:07:34;;;;;;;1.08;0.90;;;;;;;;;;5094153;28;20016;-18
2021/05/16 03:10:00;;;;;;;4.00;1.00;;;;;;;;;;5092967;28;20028;-18
2021/05/16 03:12:26;;;;;;;1.02;1.00;;;;;;;;;;5094238;28;20044;-18
2021/05/16 03:14:51;;;;;;;3.53;1.58;;;;;;;;;;5094233;28;20124;-18
2021/05/16 03:17:17;;;;;;;1.23;1.13;;;;;;;;;;5094180;28;20024;-18
2021/05/16 03:19:43;;;;;;;2.50;1.13;;;;;;;;;;5093875;28;20024;-18
2021/05/16 03:22:09;;;;;;;2.70;0.93;;;;;;;;;;5092710;28;20030;-18
2021/05/16 03:24:37;;;;;;;1.52;1.10;;;;;;;;;;5092542;28;20115;-18
2021/05/16 03:27:05;;;;;;;1.15;0.90;;;;;;;;;;5093794;28;20105;-18
2021/05/16 03:29:31;;;;;;;3.58;1.90;;;;;;;;;;5093793;28;20040;-18
2021/05/16 03:31:58;;;;;;;1.05;1.00;;;;;;;;;;5093863;28;20121;-18
2021/05/16 03:34:23;;;;;;;1.23;1.13;;;;;;;;;;5093842;28;20024;-18
2021/05/16 03:36:48;;;;;;;2.92;1.40;;;;;;;;;;5093654;28;20099;-18
2021/05/16 03:39:14;;;;;;;8.05;1.50;;;;;;;;;;5094034;28;20028;-18
2021/05/16 03:41:39;;;;;;;3.80;1.10;;;;;;;;;;5093560;28;20077;-18
2021/05/16 03:44:05;;;;;;;1.30;1.00;;;;;;;;;;5093687;28;20032;-18
2021/05/16 03:46:30;;;;;;;4.95;1.30;;;;;;;;;;5093806;28;20057;-18
2021/05/16 03:48:56;;;;;;;1.35;1.20;;;;;;;;;;5093334;28;20040;-18
2021/05/16 03:51:21;;;;;;;1.20;1.10;;;;;;;;;;5093506;28;20020;-18
2021/05/16 03:53:46;;;;;;;3.88;2.58;;;;;;;;;;5093316;28;20036;-19
2021/05/16 03:56:12;;;;;;;1.48;1.17;;;;;;;;;;5093355;28;20065;-18
2021/05/16 03:58:37;;;;;;;2.67;1.20;;;;;;;;;;5093311;28;20107;-18
2021/05/16 04:01:03;;;;;;;1.40;1.30;;;;;;;;;;5093273;28;20340;-18
2021/05/16 04:03:28;;;;;;;2.38;1.27;;;;;;;;;;5093082;28;20032;-18
2021/05/16 04:05:54;;;;;;;2.08;1.83;;;;;;;;;;5093611;28;20022;-18
2021/05/16 04:08:19;;;;;;;1.90;1.30;;;;;;;;;;5108878;28;20024;-18
2021/05/16 04:10:44;;;;;;;4.20;1.42;;;;;;;;;;5093276;28;20458;-18
2021/05/16 04:13:10;;;;;;;2.47;1.42;;;;;;;;;;5093022;28;20027;-18
2021/05/16 04:15:35;;;;;;;1.73;1.63;;;;;;;;;;5093251;28;20031;-18
2021/05/16 04:18:00;;;;;;;2.33;1.88;;;;;;;;;;5093260;28;20036;-18
2021/05/16 04:20:26;;;;;;;2.03;1.67;;;;;;;;;;5092990;28;20481;-19
2021/05/16 04:22:51;;;;;;;2.00;1.80;;;;;;;;;;5092859;28;20387;-18
2021/05/16 04:25:17;;;;;;;3.63;1.55;;;;;;;;;;5092699;28;20196;-18
2021/05/16 04:27:42;;;;;;;2.50;2.00;;;;;;;;;;5091430;28;20414;-18
2021/05/16 04:30:08;;;;;;;2.58;2.22;;;;;;;;;;5093039;28;20074;-18
2021/05/16 04:32:34;;;;;;;2.70;2.13;;;;;;;;;;5092667;28;20032;-18
2021/05/16 04:34:59;;;;;;;2.83;1.77;;;;;;;;;;5092791;28;20032;-18
2021/05/16 04:37:25;;;;;;;3.22;2.50;;;;;;;;;;5092773;28;20020;-18
2021/05/16 04:39:50;;;;;;;6.45;2.78;;;;;;;;;;5091663;28;20421;-18
2021/05/16 04:42:15;;;;;;;3.35;2.58;;;;;;;;;;5092913;28;20032;-18
2021/05/16 04:44:41;;;;;;;3.92;2.30;;;;;;;;;;5092841;28;20379;-18
2021/05/16 04:47:06;;;;;;;3.05;2.35;;;;;;;;;;5092584;28;20035;-18
2021/05/16 04:49:32;;;;;;;5.50;3.15;;;;;;;;;;5092391;28;20450;-18
2021/05/16 04:51:57;;;;;;;5.18;3.60;;;;;;;;;;5092488;28;20020;-18
2021/05/16 04:54:23;;;;;;;5.50;3.08;;;;;;;;;;5091300;28;20020;-18
2021/05/16 04:56:48;;;;;;;5.15;3.20;;;;;;;;;;5092481;28;20036;-18
2021/05/16 04:59:13;;;;;;;4.53;3.00;;;;;;;;;;5091303;28;20024;-17
2021/05/16 05:01:40;;;;;;;3.05;2.40;;;;;;;;;;5091151;28;20035;-17
2021/05/16 05:04:05;;;;;;;4.03;3.00;;;;;;;;;;5092523;28;20024;-18
2021/05/16 05:06:30;;;;;;;4.25;2.50;;;;;;;;;;5092306;28;20031;-18
2021/05/16 05:08:59;;;;;;;2.67;2.40;;;;;;;;;;5092398;28;20035;-18
2021/05/16 05:11:24;;;;;;;3.10;2.47;;;;;;;;;;5108026;28;20540;-18
2021/05/16 05:13:50;;;;;;;3.33;2.80;;;;;;;;;;5096267;28;20024;-18
2021/05/16 05:16:15;;;;;;;4.90;3.10;;;;;;;;;;5096769;28;20056;-18
2021/05/16 05:18:40;;;;;;;4.30;3.33;;;;;;;;;;5096361;28;20490;-18
2021/05/16 05:21:07;;;;;;;3.20;2.45;;;;;;;;;;5096592;28;20032;-18
2021/05/16 05:23:33;;;;;;;2.80;2.17;;;;;;;;;;5096445;28;20024;-18
2021/05/16 05:25:58;;;;;;;3.22;2.83;;;;;;;;;;5096147;28;20376;-18
2021/05/16 05:28:24;;;;;;;6.60;2.65;;;;;;;;;;5096101;28;20395;-18
2021/05/16 05:30:50;;;;;;;4.57;2.92;;;;;;;;;;5096096;28;20040;-18
2021/05/16 05:33:15;;;;;;;5.47;2.78;;;;;;;;;;5096271;28;20069;-19
2021/05/16 05:35:40;;;;;;;6.85;2.97;;;;;;;;;;5095958;28;20033;-18
2021/05/16 05:38:06;;;;;;;6.03;3.08;;;;;;;;;;5096348;28;20016;-18
2021/05/16 05:40:31;;;;;;;5.28;2.55;;;;;;;;;;5095992;28;20031;-18
2021/05/16 05:42:57;;;;;;;5.32;3.15;;;;;;;;;;5095909;28;20020;-18
2021/05/16 05:45:22;;;;;;;3.65;2.70;;;;;;;;;;5095992;28;20024;-18
2021/05/16 05:47:47;;;;;;;3.88;3.15;;;;;;;;;;5095686;28;20032;-19
2021/05/16 05:50:13;;;;;;;7.68;3.25;;;;;;;;;;5095736;28;20035;-18
2021/05/16 05:52:38;;;;;;;3.65;3.13;;;;;;;;;;5095702;28;20020;-18
2021/05/16 05:55:04;;;;;;;5.10;2.90;;;;;;;;;;5094457;28;20060;-18
2021/05/16 05:57:30;;;;;;;5.00;2.85;;;;;;;;;;5094247;28;20024;-18
2021/05/16 05:59:55;;;;;;;5.50;2.63;;;;;;;;;;5095624;28;20478;-18
2021/05/16 06:02:20;;;;;;;4.50;2.53;;;;;;;;;;5095572;28;20031;-22
2021/05/16 06:04:46;;;;;;;9.27;4.68;;;;;;;;;;5094152;28;20039;-18
2021/05/16 06:07:11;;;;;;;6.70;4.65;;;;;;;;;;5095838;28;20447;-18
2021/05/16 06:09:37;;;;;;;8.43;4.28;;;;;;;;;;5095532;28;20028;-18
2021/05/16 06:12:06;;;;;;;7.03;4.40;;;;;;;;;;5095188;28;20017;-17
2021/05/16 06:14:32;;;;;;;7.20;4.38;;;;;;;;;;5095478;28;20042;-17
2021/05/16 06:16:57;;;;;;;6.13;4.07;;;;;;;;;;5095249;28;20091;-17
2021/05/16 06:19:23;;;;;;;7.25;3.40;;;;;;;;;;5095427;28;20032;-20
2021/05/16 06:21:48;;;;;;;5.30;2.75;;;;;;;;;;5095062;28;20475;-19
2021/05/16 06:24:14;;;;;;;4.50;2.38;;;;;;;;;;5093844;28;20095;-20
2021/05/16 06:26:42;;;;;;;2.33;2.13;;;;;;;;;;5094808;28;20040;-19
2021/05/16 06:29:08;;;;;;;3.38;1.95;;;;;;;;;;5110762;28;20036;-19
2021/05/16 06:31:33;;;;;;;2.33;2.03;;;;;;;;;;5095092;28;20368;-19
2021/05/16 06:33:59;;;;;;;3.28;1.92;;;;;;;;;;5095130;28;20124;-19
2021/05/16 06:36:26;;;;;;;2.13;1.77;;;;;;;;;;5094935;28;20091;-20
2021/05/16 06:38:51;;;;;;;3.67;2.15;;;;;;;;;;5110294;28;20049;-19
2021/05/16 06:41:17;;;;;;;6.72;2.00;;;;;;;;;;5094707;28;20047;-19
2021/05/16 06:43:42;;;;;;;5.72;1.98;;;;;;;;;;5110379;28;20070;-18
2021/05/16 06:46:08;;;;;;;5.95;2.00;;;;;;;;;;5093262;28;20036;-19
2021/05/16 06:48:34;;;;;;;6.78;2.17;;;;;;;;;;5094285;28;20043;-18
2021/05/16 06:50:59;;;;;;;4.60;2.33;;;;;;;;;;5094516;28;20019;-18
2021/05/16 06:53:25;;;;;;;2.80;2.10;;;;;;;;;;5094309;28;20020;-18
2021/05/16 06:55:50;;;;;;;3.78;2.22;;;;;;;;;;5094467;28;20016;-18
2021/05/16 06:58:15;;;;;;;3.75;2.30;;;;;;;;;;5094391;28;20060;-18
2021/05/16 07:00:41;;;;;;;5.35;3.20;;;;;;;;;;5094114;28;20031;-18
2021/05/16 07:03:06;;;;;;;7.00;3.35;;;;;;;;;;5094298;28;20111;-18
2021/05/16 07:05:32;;;;;;;5.82;2.42;;;;;;;;;;5094243;28;20031;-18
2021/05/16 07:07:58;;;;;;;5.88;2.83;;;;;;;;;;5094176;28;20179;-18
2021/05/16 07:10:24;;;;;;;5.82;3.00;;;;;;;;;;5094054;28;20082;-19
2021/05/16 07:12:50;;;;;;;5.63;3.63;;;;;;;;;;5093687;28;20068;-18
2021/05/16 07:15:16;;;;;;;5.18;2.95;;;;;;;;;;5094388;28;20107;-18
2021/05/16 07:17:42;;;;;;;13.63;5.30;;;;;;;;;;5093480;28;20503;-18
2021/05/16 07:20:08;;;;;;;8.85;4.68;;;;;;;;;;5093922;28;20050;-18
2021/05/16 07:22:33;;;;;;;8.48;4.35;;;;;;;;;;4739505;27;10000313;-18
2021/05/16 07:24:59;;;;;;;9.27;5.13;;;;;;;;;;5089706;28;20032;-18
2021/05/16 07:27:24;;;;;;;11.70;4.63;;;;;;;;;;5090283;28;20039;-18
2021/05/16 07:29:50;;;;;;;10.70;5.60;;;;;;;;;;5088711;28;20040;-19
2021/05/16 07:32:16;;;;;;;8.68;5.03;;;;;;;;;;5090561;28;20036;-20
2021/05/16 07:34:42;;;;;;;9.00;5.38;;;;;;;;;;5087751;28;20039;-19
2021/05/16 07:37:08;;;;;;;10.57;4.43;;;;;;;;;;5089680;28;20024;-18
2021/05/16 07:39:33;;;;;;;9.35;4.45;;;;;;;;;;5088422;28;20008;-18
2021/05/16 07:41:59;;;;;;;10.43;4.60;;;;;;;;;;5089448;28;20036;-18
2021/05/16 07:44:24;;;;;;;9.75;3.88;;;;;;;;;;5090087;28;20050;-18
2021/05/16 07:46:49;;;;;;;7.35;3.08;;;;;;;;;;5087828;28;20676;-21
2021/05/16 07:49:15;;;;;;;6.05;3.95;;;;;;;;;;5090235;28;20036;-18
2021/05/16 07:51:41;;;;;;;7.57;2.70;;;;;;;;;;5089704;28;20103;-18
2021/05/16 07:54:07;;;;;;;2.53;1.77;;;;;;;;;;5087770;28;20069;-18
2021/05/16 07:56:32;;;;;;;7.50;2.83;;;;;;;;;;5089246;28;20725;-18
2021/05/16 07:58:57;;;;;;;6.05;2.25;;;;;;;;;;5089272;28;20028;-18
2021/05/16 08:01:23;;;;;;;3.72;2.22;;;;;;;;;;5089505;28;20028;-15
2021/05/16 08:03:48;;;;;;;4.15;2.10;;;;;;;;;;5089285;28;20034;-18
2021/05/16 08:06:14;;;;;;;10.77;4.35;;;;;;;;;;5089526;28;20035;-18
2021/05/16 08:08:39;;;;;;;8.27;3.35;;;;;;;;;;5087853;28;20119;-17
2021/05/16 08:11:05;;;;;;;7.80;4.15;;;;;;;;;;5089494;28;20036;-17
2021/05/16 08:13:30;;;;;;;5.38;2.67;;;;;;;;;;5089893;28;20522;-17
2021/05/16 08:15:56;;;;;;;3.83;3.35;;;;;;;;;;5090015;28;20031;-22
2021/05/16 08:18:21;;;;;;;4.88;3.03;;;;;;;;;;5105255;28;20022;-17
2021/05/16 08:20:46;;;;;;;7.72;3.25;;;;;;;;;;5088125;28;20127;-17
2021/05/16 08:23:12;;;;;;;6.22;3.70;;;;;;;;;;5089252;28;20066;-17
2021/05/16 08:25:39;;;;;;;3.45;2.25;;;;;;;;;;5087765;28;20071;-17
2021/05/16 08:28:04;;;;;;;3.35;1.95;;;;;;;;;;5089325;28;20031;-17
2021/05/16 08:30:30;;;;;;;5.90;3.05;;;;;;;;;;5089412;28;20088;-17
2021/05/16 08:32:55;;;;;;;5.35;2.97;;;;;;;;;;5089535;28;20020;-16
2021/05/16 08:35:21;;;;;;;3.20;2.08;;;;;;;;;;5089392;28;20032;-17
2021/05/16 08:37:46;;;;;;;2.28;1.85;;;;;;;;;;5089307;28;20016;-16
2021/05/16 08:40:12;;;;;;;3.42;1.50;;;;;;;;;;5089412;28;20032;-17
2021/05/16 08:42:38;;;;;;;1.27;0.88;;;;;;;;;;5089236;28;20027;-17
2021/05/16 08:45:08;;;;;;;3.92;1.23;;;;;;;;;;5089285;28;20085;-16
2021/05/16 08:47:34;;;;;;;3.78;1.27;;;;;;;;;;5087865;28;20371;-17
2021/05/16 08:49:59;;;;;;;8.13;2.10;;;;;;;;;;5087646;28;20047;-17
2021/05/16 08:52:25;;;;;;;2.75;1.58;;;;;;;;;;5089185;28;20045;-17
2021/05/16 08:54:53;;;;;;;1.27;1.00;;;;;;;;;;5088649;28;20097;-17
2021/05/16 08:57:19;;;;;;;1.08;0.95;;;;;;;;;;5088664;28;20371;-17
2021/05/16 09:00:04;;;;;;;1.08;0.73;;;;;;;;;;5088564;28;20028;-17
2021/05/16 09:02:29;;;;;;;4.13;1.02;;;;;;;;;;5104069;28;20134;-16
2021/05/16 09:04:55;;;;;;;3.70;1.10;;;;;;;;;;5089002;28;20103;-17
2021/05/16 09:07:30;;;;;;;5.38;1.17;;;;;;;;;;5088776;28;20038;-17
2021/05/16 09:09:56;;;;;;;7.68;2.13;;;;;;;;;;5088103;28;20039;-18
2021/05/16 09:12:22;;;;;;;7.80;1.35;;;;;;;;;;5088081;28;20093;-17
2021/05/16 09:14:52;;;;;;;5.05;1.20;;;;;;;;;;5088598;28;20493;-17
2021/05/16 09:17:21;;;;;;;4.43;1.80;;;;;;;;;;5088342;28;20107;-17
2021/05/16 09:19:51;;;;;;;2.15;1.63;;;;;;;;;;5088804;28;20023;-17
2021/05/16 09:22:35;;;;;;;2.42;1.65;;;;;;;;;;5088347;28;20028;-17
2021/05/16 09:25:05;;;;;;;4.00;1.15;;;;;;;;;;5087044;28;20078;-18
2021/05/16 09:27:32;;;;;;;3.58;1.00;;;;;;;;;;5086920;28;20032;-19
2021/05/16 09:29:57;;;;;;;3.38;1.10;;;;;;;;;;5088504;28;20040;-18
2021/05/16 09:32:25;;;;;;;2.88;0.80;;;;;;;;;;5088637;28;20022;-17
2021/05/16 09:34:50;;;;;;;1.08;0.85;;;;;;;;;;5087668;28;20053;-17
2021/05/16 09:37:16;;;;;;;4.50;0.90;;;;;;;;;;5104001;28;20401;-18
2021/05/16 09:39:44;;;;;;;3.05;0.77;;;;;;;;;;5088343;28;20013;-17
2021/05/16 09:42:13;;;;;;;4.68;1.30;;;;;;;;;;5088558;28;20032;-18
2021/05/16 09:44:39;;;;;;;6.95;0.82;;;;;;;;;;5088375;28;20036;-18
2021/05/16 09:47:23;;;;;;;1.38;0.77;;;;;;;;;;5086688;28;20198;-18
2021/05/16 09:49:53;;;;;;;1.85;0.70;;;;;;;;;;5088177;28;20124;-17
2021/05/16 09:52:18;;;;;;;6.93;0.82;;;;;;;;;;5087034;28;20402;-17
2021/05/16 09:55:02;;;;;;;1.98;0.40;;;;;;;;;;5086861;28;20038;-17
2021/05/16 09:57:36;;;;;;;1.75;0.60;;;;;;;;;;5088410;28;20536;-17
2021/05/16 10:00:02;;;;;;;4.00;0.63;;;;;;;;;;5091825;28;20031;-17
2021/05/16 10:02:29;;;;;;;1.23;0.40;;;;;;;;;;5092255;28;20482;-17
2021/05/16 10:04:56;;;;;;;2.38;0.63;;;;;;;;;;5092296;28;20035;-18
2021/05/16 10:07:22;;;;;;;4.40;1.98;;;;;;;;;;5092242;28;20024;-17
2021/05/16 10:09:48;;;;;;;4.60;0.82;;;;;;;;;;5091900;28;20080;-17
2021/05/16 10:12:14;;;;;;;2.05;0.38;;;;;;;;;;5091555;28;20066;-18
2021/05/16 10:14:41;;;;;;;3.33;0.40;;;;;;;;;;5091630;28;20075;-17
2021/05/16 10:17:07;;;;;;;0.95;0.45;;;;;;;;;;5091731;28;20016;-17
2021/05/16 10:19:33;;;;;;;4.45;1.05;;;;;;;;;;5091623;28;20480;-17
2021/05/16 10:22:09;;;;;;;1.15;0.40;;;;;;;;;;5091529;28;20111;-17
2021/05/16 10:24:38;;;;;;;1.05;0.60;;;;;;;;;;5091409;28;20027;-18
2021/05/16 10:27:22;;;;;;;1.30;0.30;;;;;;;;;;5106926;28;20521;-18
2021/05/16 10:29:51;;;;;;;0.85;0.30;;;;;;;;;;5091017;28;20623;-18
2021/05/16 10:32:42;;;;;;;0.38;0.30;;;;;;;;;;5091639;28;20023;-17
2021/05/16 10:35:09;;;;;;;5.90;0.70;;;;;;;;;;5090026;28;20115;-17
2021/05/16 10:37:37;;;;;;;0.40;0.38;;;;;;;;;;5091056;28;20016;-17
2021/05/16 10:40:03;;;;;;;0.40;0.40;;;;;;;;;;5090983;28;20047;-17
2021/05/16 10:42:36;;;;;;;1.58;0.38;;;;;;;;;;5091052;28;20024;-17
2021/05/16 10:45:12;;;;;;;1.63;0.40;;;;;;;;;;5091162;28;20031;-17
2021/05/16 10:47:45;;;;;;;2.20;0.63;;;;;;;;;;5090929;28;20085;-18
2021/05/16 10:50:11;;;;;;;6.28;0.70;;;;;;;;;;5090800;28;20080;-17
2021/05/16 10:52:37;;;;;;;1.70;0.80;;;;;;;;;;5090836;28;20024;-17
2021/05/16 10:55:03;;;;;;;1.63;0.52;;;;;;;;;;5090780;28;20035;-17
2021/05/16 10:57:39;;;;;;;2.70;0.63;;;;;;;;;;5090584;28;20020;-17
2021/05/16 11:00:19;;;;;;;9.10;1.00;;;;;;;;;;5090659;28;20086;-17
2021/05/16 11:02:58;;;;;;;4.47;0.75;;;;;;;;;;5090128;28;20036;-16
2021/05/16 11:08:08;;;;;;;3.40;0.60;;;;;;;;;;5090456;28;20078;-16
2021/05/16 11:10:33;;;;;;;4.90;0.45;;;;;;;;;;5089621;28;20043;-16
2021/05/16 11:13:16;;;;;;;1.88;0.50;;;;;;;;;;5106330;28;20467;-16
2021/05/16 11:15:52;;;;;;;8.40;0.80;;;;;;;;;;5106149;28;20031;-17
2021/05/16 11:18:19;;;;;;;3.53;0.55;;;;;;;;;;5090314;28;20282;-16
2021/05/16 11:20:50;;;;;;;6.28;0.70;;;;;;;;;;5090297;28;20031;-17
2021/05/16 11:23:32;;;;;;;0.93;0.47;;;;;;;;;;5089999;28;20036;-16
2021/05/16 11:25:57;;;;;;;2.45;0.52;;;;;;;;;;5083352;28;20068;-18
2021/05/16 11:28:23;;;;;;;2.30;0.47;;;;;;;;;;5089972;28;20549;-17
2021/05/16 11:30:53;;;;;;;1.23;0.30;;;;;;;;;;5105613;28;20032;-17
2021/05/16 11:33:32;;;;;;;3.40;0.50;;;;;;;;;;5090218;28;20030;-17
2021/05/16 11:36:03;;;;;;;3.60;0.70;;;;;;;;;;5089794;28;20545;-16
2021/05/16 11:38:30;;;;;;;6.13;0.80;;;;;;;;;;5089985;28;20032;-16
2021/05/16 11:40:56;;;;;;;1.35;0.50;;;;;;;;;;5105258;28;20454;-16
2021/05/16 11:43:27;;;;;;;0.60;0.28;;;;;;;;;;5090127;28;20031;-18
2021/05/16 11:45:53;;;;;;;2.15;0.40;;;;;;;;;;5089509;28;20028;-19
2021/05/16 11:48:33;;;;;;;1.80;1.48;;;;;;;;;;5089973;28;20745;-16
2021/05/16 11:51:03;;;;;;;1.92;0.30;;;;;;;;;;5089585;28;20062;-23
2021/05/16 11:53:28;;;;;;;2.60;0.50;;;;;;;;;;5089485;28;20032;-17
2021/05/16 11:55:54;;;;;;;0.70;0.38;;;;;;;;;;5089358;28;20031;-16
2021/05/16 11:58:19;;;;;;;2.90;0.60;;;;;;;;;;5089758;28;20019;-17
2021/05/16 12:00:47;;;;;;;2.47;0.40;;;;;;;;;;5089526;28;20646;-17
2021/05/16 12:03:15;;;;;;;0.95;0.30;;;;;;;;;;5090017;28;20020;-17
2021/05/16 12:05:42;;;;;;;1.38;0.30;;;;;;;;;;5089351;28;20031;-17
2021/05/16 12:08:14;;;;;;;4.55;0.70;;;;;;;;;;5089614;28;20020;-17
2021/05/16 12:10:39;;;;;;;2.00;0.70;;;;;;;;;;5089096;28;20036;-17
2021/05/16 12:13:18;;;;;;;3.30;0.70;;;;;;;;;;5089211;28;20032;-17
2021/05/16 12:15:43;;;;;;;0.93;0.40;;;;;;;;;;5089189;28;20024;-17
2021/05/16 12:18:22;;;;;;;1.73;1.05;;;;;;;;;;5089399;28;20031;-17
2021/05/16 12:20:57;;;;;;;1.38;0.30;;;;;;;;;;5088981;28;20035;-17
2021/05/16 12:23:23;;;;;;;2.63;0.60;;;;;;;;;;5088467;28;20028;-17
2021/05/16 12:25:49;;;;;;;0.52;0.32;;;;;;;;;;5088992;28;20058;-17
2021/05/16 12:28:14;;;;;;;1.02;0.50;;;;;;;;;;5088926;28;20111;-17
2021/05/16 12:30:39;;;;;;;1.30;0.80;;;;;;;;;;5088847;28;20051;-17
2021/05/16 12:33:05;;;;;;;1.17;0.30;;;;;;;;;;5089317;28;20534;-17
2021/05/16 12:35:30;;;;;;;1.48;0.38;;;;;;;;;;5088852;28;20020;-17
2021/05/16 12:37:56;;;;;;;1.73;0.60;;;;;;;;;;5089313;28;20024;-17
2021/05/16 12:40:25;;;;;;;1.30;0.30;;;;;;;;;;5089272;28;20512;-17
2021/05/16 12:43:03;;;;;;;0.45;0.20;;;;;;;;;;5089197;28;20024;-17
2021/05/16 12:45:30;;;;;;;2.63;0.68;;;;;;;;;;5089451;28;20035;-17
2021/05/16 12:47:55;;;;;;;6.45;0.73;;;;;;;;;;5088892;28;20031;-17
2021/05/16 12:50:27;;;;;;;1.00;0.60;;;;;;;;;;5089384;28;20040;-17
2021/05/16 12:52:52;;;;;;;0.20;0.20;;;;;;;;;;5089125;28;20364;-16
2021/05/16 12:55:27;;;;;;;0.80;0.75;;;;;;;;;;5087741;28;20035;-17
2021/05/16 12:58:01;;;;;;;0.55;0.47;;;;;;;;;;5088808;28;20034;-17
2021/05/16 13:00:32;;;;;;;5.68;0.63;;;;;;;;;;5088781;28;20460;-17
2021/05/16 13:03:07;;;;;;;6.88;0.60;;;;;;;;;;5089049;28;20061;-16
2021/05/16 13:05:45;;;;;;;0.00;0.00;;;;;;;;;;5089249;28;20036;-17
2021/05/16 13:08:11;;;;;;;1.15;0.43;;;;;;;;;;5089240;28;20059;-17
2021/05/16 13:10:38;;;;;;;2.88;0.60;;;;;;;;;;5088668;28;20477;-16
2021/05/16 13:13:10;;;;;;;1.60;0.35;;;;;;;;;;5089022;28;20034;-17
2021/05/16 13:15:37;;;;;;;1.75;0.50;;;;;;;;;;5088894;28;20375;-16
2021/05/16 13:18:21;;;;;;;1.42;0.50;;;;;;;;;;5088738;28;20032;-17
2021/05/16 13:20:46;;;;;;;0.75;0.43;;;;;;;;;;5088719;28;20379;-17
2021/05/16 13:23:18;;;;;;;1.30;0.52;;;;;;;;;;5088580;28;20024;-17
2021/05/16 13:25:45;;;;;;;1.77;0.55;;;;;;;;;;5088369;28;20127;-17
2021/05/16 13:28:10;;;;;;;4.00;0.60;;;;;;;;;;5088518;28;20112;-17
2021/05/16 13:30:36;;;;;;;0.50;0.30;;;;;;;;;;5088251;28;20114;-16
2021/05/16 13:33:08;;;;;;;0.98;0.60;;;;;;;;;;5089642;28;20456;-17
2021/05/16 13:35:33;;;;;;;0.25;0.10;;;;;;;;;;5090668;28;20035;-17
2021/05/16 13:37:59;;;;;;;2.78;0.50;;;;;;;;;;5092481;28;20024;-18
2021/05/16 13:40:24;;;;;;;3.33;0.52;;;;;;;;;;5092605;28;20024;-17
2021/05/16 13:42:50;;;;;;;1.30;0.70;;;;;;;;;;5092046;28;20019;-17
2021/05/16 13:45:15;;;;;;;6.45;0.70;;;;;;;;;;5092121;28;20564;-19
2021/05/16 13:47:40;;;;;;;1.27;0.30;;;;;;;;;;5091576;28;20095;-19
2021/05/16 13:50:06;;;;;;;0.60;0.50;;;;;;;;;;5091996;28;20028;-17
2021/05/16 13:52:31;;;;;;;2.42;0.38;;;;;;;;;;5092238;28;20070;-17
2021/05/16 13:54:57;;;;;;;0.82;0.40;;;;;;;;;;5091820;28;20035;-16
2021/05/16 13:57:24;;;;;;;1.85;0.38;;;;;;;;;;5092109;28;20020;-17
2021/05/16 13:59:49;;;;;;;2.03;0.40;;;;;;;;;;5091501;28;20036;-17
2021/05/16 14:02:14;;;;;;;1.13;0.50;;;;;;;;;;5090408;28;20032;-17
2021/05/16 14:04:40;;;;;;;0.10;0.10;;;;;;;;;;5091690;28;20099;-17
2021/05/16 14:07:05;;;;;;;2.63;0.60;;;;;;;;;;5089972;28;20020;-16
2021/05/16 14:09:31;;;;;;;1.30;0.35;;;;;;;;;;5091537;28;20051;-16
2021/05/16 14:11:56;;;;;;;4.03;0.55;;;;;;;;;;5091613;28;20027;-24
2021/05/16 14:14:21;;;;;;;1.75;0.82;;;;;;;;;;5091838;28;20035;-17
2021/05/16 14:16:49;;;;;;;2.78;0.90;;;;;;;;;;5091924;28;20468;-16
2021/05/16 14:19:14;;;;;;;1.30;0.40;;;;;;;;;;5091930;28;20024;-17
2021/05/16 14:21:39;;;;;;;2.05;0.55;;;;;;;;;;5091487;28;20027;-16
2021/05/16 14:24:05;;;;;;;2.53;0.40;;;;;;;;;;5091368;28;20494;-16
2021/05/16 14:26:31;;;;;;;0.63;0.50;;;;;;;;;;5091561;28;20044;-18
2021/05/16 14:28:56;;;;;;;2.53;0.77;;;;;;;;;;5091216;28;20039;-16
2021/05/16 14:31:22;;;;;;;1.67;0.93;;;;;;;;;;5091460;28;20020;-17
2021/05/16 14:33:47;;;;;;;0.30;0.22;;;;;;;;;;5091353;28;20025;-16
2021/05/16 14:36:12;;;;;;;1.45;0.63;;;;;;;;;;5090840;28;20024;-16
2021/05/16 14:38:38;;;;;;;3.60;0.68;;;;;;;;;;5091170;28;20042;-18
2021/05/16 14:41:03;;;;;;;8.38;0.50;;;;;;;;;;5106488;28;20024;-18
2021/05/16 14:43:31;;;;;;;1.85;0.30;;;;;;;;;;5091085;28;20039;-16
2021/05/16 14:45:56;;;;;;;4.70;0.45;;;;;;;;;;5089561;28;20036;-17